sensor_id;sensor_type;location;lat;lon;timestamp;P1;durP1;ratioP1;P2;durP2;ratioP2
20369;SDS011;10344;47.592;9.600;2023-07-16T00:08:14;2.83;;;2.45;;
20369;SDS011;10344;47.592;9.600;2023-07-16T01:58:22;2.33;;;1.37;;
20369;SDS011;10344;47.592;9.600;2023-07-16T02:00:49;1.90;;;1.30;;
20369;SDS011;10344;47.592;9.600;2023-07-16T02:03:17;2.85;;;1.30;;
20369;SDS011;10344;47.592;9.600;2023-07-16T05:32:49;2.77;;;1.40;;
20369;SDS011;10344;47.592;9.600;2023-07-16T05:37:47;1.80;;;1.40;;
20369;SDS011;10344;47.592;9.600;2023-07-16T05:40:15;1.70;;;1.40;;
20369;SDS011;10344;47.592;9.600;2023-07-16T05:42:43;1.45;;;1.30;;
20369;SDS011;10344;47.592;9.600;2023-07-16T05:45:08;1.47;;;1.20;;
20369;SDS011;10344;47.592;9.600;2023-07-16T05:47:34;2.17;;;1.07;;
20369;SDS011;10344;47.592;9.600;2023-07-16T05:50:02;1.97;;;1.20;;
20369;SDS011;10344;47.592;9.600;2023-07-16T05:52:28;1.33;;;1.23;;
20369;SDS011;10344;47.592;9.600;2023-07-16T05:54:53;1.70;;;1.40;;
20369;SDS011;10344;47.592;9.600;2023-07-16T05:57:19;1.50;;;1.30;;
20369;SDS011;10344;47.592;9.600;2023-07-16T05:59:45;1.30;;;1.13;;
20369;SDS011;10344;47.592;9.600;2023-07-16T06:02:10;1.27;;;1.17;;
20369;SDS011;10344;47.592;9.600;2023-07-16T06:04:38;1.20;;;1.10;;
20369;SDS011;10344;47.592;9.600;2023-07-16T07:08:06;1.20;;;1.10;;
20369;SDS011;10344;47.592;9.600;2023-07-16T07:20:23;1.00;;;0.90;;
20369;SDS011;10344;47.592;9.600;2023-07-16T07:22:51;1.20;;;1.00;;
20369;SDS011;10344;47.592;9.600;2023-07-16T07:25:16;1.30;;;1.10;;
20369;SDS011;10344;47.592;9.600;2023-07-16T07:27:45;1.40;;;1.00;;
20369;SDS011;10344;47.592;9.600;2023-07-16T07:30:13;1.35;;;1.05;;
20369;SDS011;10344;47.592;9.600;2023-07-16T07:32:39;1.00;;;0.82;;
20369;SDS011;10344;47.592;9.600;2023-07-16T07:35:07;2.03;;;0.90;;
20369;SDS011;10344;47.592;9.600;2023-07-16T08:21:35;1.83;;;0.90;;
20369;SDS011;10344;47.592;9.600;2023-07-16T08:24:02;1.67;;;1.00;;
20369;SDS011;10344;47.592;9.600;2023-07-16T08:26:32;1.95;;;1.10;;
20369;SDS011;10344;47.592;9.600;2023-07-16T08:29:00;1.17;;;1.00;;
20369;SDS011;10344;47.592;9.600;2023-07-16T08:38:44;1.30;;;1.03;;
20369;SDS011;10344;47.592;9.600;2023-07-16T08:41:09;1.58;;;1.10;;
20369;SDS011;10344;47.592;9.600;2023-07-16T08:48:28;1.37;;;1.00;;
20369;SDS011;10344;47.592;9.600;2023-07-16T08:51:00;1.88;;;1.10;;
20369;SDS011;10344;47.592;9.600;2023-07-16T08:53:29;0.70;;;0.70;;
20369;SDS011;10344;47.592;9.600;2023-07-16T08:55:55;1.30;;;1.10;;
20369;SDS011;10344;47.592;9.600;2023-07-16T08:58:22;1.40;;;0.90;;
20369;SDS011;10344;47.592;9.600;2023-07-16T09:00:51;1.60;;;1.00;;
20369;SDS011;10344;47.592;9.600;2023-07-16T09:03:17;1.10;;;0.80;;
20369;SDS011;10344;47.592;9.600;2023-07-16T09:05:45;0.82;;;0.80;;
20369;SDS011;10344;47.592;9.600;2023-07-16T09:37:46;1.40;;;0.90;;
20369;SDS011;10344;47.592;9.600;2023-07-16T09:40:12;0.70;;;0.70;;
20369;SDS011;10344;47.592;9.600;2023-07-16T09:42:38;1.17;;;0.97;;
20369;SDS011;10344;47.592;9.600;2023-07-16T09:45:05;1.83;;;0.90;;
20369;SDS011;10344;47.592;9.600;2023-07-16T09:47:33;1.97;;;1.00;;
20369;SDS011;10344;47.592;9.600;2023-07-16T09:54:56;3.33;;;1.13;;
20369;SDS011;10344;47.592;9.600;2023-07-16T09:57:23;1.50;;;1.10;;
20369;SDS011;10344;47.592;9.600;2023-07-16T10:12:22;1.93;;;1.10;;
20369;SDS011;10344;47.592;9.600;2023-07-16T10:27:09;2.40;;;1.10;;
20369;SDS011;10344;47.592;9.600;2023-07-16T10:29:37;2.13;;;1.20;;
20369;SDS011;10344;47.592;9.600;2023-07-16T10:32:03;1.40;;;1.20;;
20369;SDS011;10344;47.592;9.600;2023-07-16T10:34:34;2.30;;;1.27;;
20369;SDS011;10344;47.592;9.600;2023-07-16T10:37:05;1.60;;;1.00;;
20369;SDS011;10344;47.592;9.600;2023-07-16T10:39:34;1.65;;;0.95;;
20369;SDS011;10344;47.592;9.600;2023-07-16T10:42:09;1.70;;;1.20;;
20369;SDS011;10344;47.592;9.600;2023-07-16T10:44:35;1.60;;;1.13;;
20369;SDS011;10344;47.592;9.600;2023-07-16T10:47:04;1.42;;;1.20;;
20369;SDS011;10344;47.592;9.600;2023-07-16T10:49:33;1.50;;;1.10;;
20369;SDS011;10344;47.592;9.600;2023-07-16T10:52:04;1.25;;;0.90;;
20369;SDS011;10344;47.592;9.600;2023-07-16T10:54:30;1.15;;;0.82;;
20369;SDS011;10344;47.592;9.600;2023-07-16T10:56:55;1.35;;;0.90;;
20369;SDS011;10344;47.592;9.600;2023-07-16T10:59:21;2.22;;;1.40;;
20369;SDS011;10344;47.592;9.600;2023-07-16T11:01:47;1.73;;;0.93;;
20369;SDS011;10344;47.592;9.600;2023-07-16T11:04:15;1.67;;;1.05;;
20369;SDS011;10344;47.592;9.600;2023-07-16T11:06:45;1.57;;;1.13;;
20369;SDS011;10344;47.592;9.600;2023-07-16T11:09:13;1.73;;;1.10;;
20369;SDS011;10344;47.592;9.600;2023-07-16T12:07:54;2.63;;;1.30;;
20369;SDS011;10344;47.592;9.600;2023-07-16T12:10:22;1.10;;;1.00;;
20369;SDS011;10344;47.592;9.600;2023-07-16T12:12:50;1.63;;;1.00;;
20369;SDS011;10344;47.592;9.600;2023-07-16T12:15:15;1.75;;;1.00;;
20369;SDS011;10344;47.592;9.600;2023-07-16T12:17:41;1.63;;;1.20;;
20369;SDS011;10344;47.592;9.600;2023-07-16T12:20:07;3.20;;;1.10;;
20369;SDS011;10344;47.592;9.600;2023-07-16T12:22:32;1.58;;;1.00;;
20369;SDS011;10344;47.592;9.600;2023-07-16T12:24:58;2.20;;;1.10;;
20369;SDS011;10344;47.592;9.600;2023-07-16T12:27:26;1.58;;;1.17;;
20369;SDS011;10344;47.592;9.600;2023-07-16T12:29:57;1.67;;;1.17;;
20369;SDS011;10344;47.592;9.600;2023-07-16T12:32:22;1.43;;;1.20;;
20369;SDS011;10344;47.592;9.600;2023-07-16T12:34:50;2.58;;;1.27;;
20369;SDS011;10344;47.592;9.600;2023-07-16T12:37:19;1.40;;;1.10;;
20369;SDS011;10344;47.592;9.600;2023-07-16T12:39:45;3.17;;;1.23;;
20369;SDS011;10344;47.592;9.600;2023-07-16T12:42:11;1.50;;;1.00;;
20369;SDS011;10344;47.592;9.600;2023-07-16T12:44:39;1.55;;;1.20;;
20369;SDS011;10344;47.592;9.600;2023-07-16T12:47:04;1.63;;;1.20;;
20369;SDS011;10344;47.592;9.600;2023-07-16T12:49:30;1.35;;;1.20;;
20369;SDS011;10344;47.592;9.600;2023-07-16T12:51:58;3.03;;;1.25;;
20369;SDS011;10344;47.592;9.600;2023-07-16T12:54:27;3.40;;;1.42;;
20369;SDS011;10344;47.592;9.600;2023-07-16T12:56:55;1.90;;;1.30;;
20369;SDS011;10344;47.592;9.600;2023-07-16T12:59:20;1.10;;;1.00;;
20369;SDS011;10344;47.592;9.600;2023-07-16T13:01:46;1.48;;;1.23;;
20369;SDS011;10344;47.592;9.600;2023-07-16T13:04:11;1.80;;;1.30;;
20369;SDS011;10344;47.592;9.600;2023-07-16T13:06:37;1.67;;;1.07;;
20369;SDS011;10344;47.592;9.600;2023-07-16T13:09:05;3.30;;;1.60;;
20369;SDS011;10344;47.592;9.600;2023-07-16T13:11:30;2.70;;;1.20;;
20369;SDS011;10344;47.592;9.600;2023-07-16T13:13:56;1.50;;;1.02;;
20369;SDS011;10344;47.592;9.600;2023-07-16T13:16:22;1.90;;;1.23;;
20369;SDS011;10344;47.592;9.600;2023-07-16T13:18:49;1.40;;;0.93;;
20369;SDS011;10344;47.592;9.600;2023-07-16T13:21:15;1.38;;;1.08;;
20369;SDS011;10344;47.592;9.600;2023-07-16T13:26:06;1.30;;;1.00;;
20369;SDS011;10344;47.592;9.600;2023-07-16T13:28:34;3.63;;;1.30;;
20369;SDS011;10344;47.592;9.600;2023-07-16T13:31:00;1.65;;;1.15;;
20369;SDS011;10344;47.592;9.600;2023-07-16T13:33:30;1.80;;;1.10;;
20369;SDS011;10344;47.592;9.600;2023-07-16T13:35:56;2.30;;;1.20;;
20369;SDS011;10344;47.592;9.600;2023-07-16T13:38:26;1.50;;;1.20;;
20369;SDS011;10344;47.592;9.600;2023-07-16T13:40:54;3.00;;;1.43;;
20369;SDS011;10344;47.592;9.600;2023-07-16T13:43:20;1.77;;;1.50;;
20369;SDS011;10344;47.592;9.600;2023-07-16T13:45:47;2.33;;;1.23;;
20369;SDS011;10344;47.592;9.600;2023-07-16T13:48:13;1.98;;;1.27;;
20369;SDS011;10344;47.592;9.600;2023-07-16T13:50:43;2.17;;;1.27;;
20369;SDS011;10344;47.592;9.600;2023-07-16T13:53:11;3.20;;;1.50;;
20369;SDS011;10344;47.592;9.600;2023-07-16T13:55:39;1.40;;;1.00;;
20369;SDS011;10344;47.592;9.600;2023-07-16T13:58:05;2.30;;;1.45;;
20369;SDS011;10344;47.592;9.600;2023-07-16T14:00:33;1.70;;;1.30;;
20369;SDS011;10344;47.592;9.600;2023-07-16T14:02:59;2.03;;;1.30;;
20369;SDS011;10344;47.592;9.600;2023-07-16T14:07:50;1.23;;;1.13;;
20369;SDS011;10344;47.592;9.600;2023-07-16T14:10:16;1.67;;;1.30;;
20369;SDS011;10344;47.592;9.600;2023-07-16T14:12:46;1.40;;;0.90;;
20369;SDS011;10344;47.592;9.600;2023-07-16T14:15:14;1.52;;;1.20;;
20369;SDS011;10344;47.592;9.600;2023-07-16T14:17:43;1.27;;;0.90;;
20369;SDS011;10344;47.592;9.600;2023-07-16T14:20:11;1.80;;;1.00;;
20369;SDS011;10344;47.592;9.600;2023-07-16T14:22:36;2.15;;;1.08;;
20369;SDS011;10344;47.592;9.600;2023-07-16T14:25:07;1.67;;;1.10;;
20369;SDS011;10344;47.592;9.600;2023-07-16T14:27:34;2.17;;;1.30;;
20369;SDS011;10344;47.592;9.600;2023-07-16T14:30:00;1.30;;;1.20;;
20369;SDS011;10344;47.592;9.600;2023-07-16T14:32:27;1.55;;;1.40;;
20369;SDS011;10344;47.592;9.600;2023-07-16T14:34:56;1.70;;;1.13;;
20369;SDS011;10344;47.592;9.600;2023-07-16T14:37:22;1.53;;;1.20;;
20369;SDS011;10344;47.592;9.600;2023-07-16T14:39:50;1.63;;;1.30;;
20369;SDS011;10344;47.592;9.600;2023-07-16T14:42:16;1.98;;;1.27;;
20369;SDS011;10344;47.592;9.600;2023-07-16T14:44:44;1.40;;;1.10;;
20369;SDS011;10344;47.592;9.600;2023-07-16T14:47:12;2.35;;;1.30;;
20369;SDS011;10344;47.592;9.600;2023-07-16T14:49:37;1.30;;;1.20;;
20369;SDS011;10344;47.592;9.600;2023-07-16T14:52:03;1.77;;;1.38;;
20369;SDS011;10344;47.592;9.600;2023-07-16T14:54:32;1.10;;;1.00;;
20369;SDS011;10344;47.592;9.600;2023-07-16T14:56:58;1.23;;;1.10;;
20369;SDS011;10344;47.592;9.600;2023-07-16T14:59:25;1.30;;;1.10;;
20369;SDS011;10344;47.592;9.600;2023-07-16T15:01:51;1.37;;;1.20;;
20369;SDS011;10344;47.592;9.600;2023-07-16T15:04:20;1.42;;;1.25;;
20369;SDS011;10344;47.592;9.600;2023-07-16T15:06:45;1.85;;;1.20;;
20369;SDS011;10344;47.592;9.600;2023-07-16T15:09:11;2.25;;;1.15;;
20369;SDS011;10344;47.592;9.600;2023-07-16T15:11:38;1.88;;;1.25;;
20369;SDS011;10344;47.592;9.600;2023-07-16T15:14:07;2.00;;;1.20;;
20369;SDS011;10344;47.592;9.600;2023-07-16T15:16:35;1.23;;;1.10;;
20369;SDS011;10344;47.592;9.600;2023-07-16T15:19:00;2.17;;;1.30;;
20369;SDS011;10344;47.592;9.600;2023-07-16T15:21:27;1.20;;;1.00;;
20369;SDS011;10344;47.592;9.600;2023-07-16T15:23:53;1.30;;;1.20;;
20369;SDS011;10344;47.592;9.600;2023-07-16T15:26:18;1.80;;;1.30;;
20369;SDS011;10344;47.592;9.600;2023-07-16T15:28:44;2.03;;;1.10;;
20369;SDS011;10344;47.592;9.600;2023-07-16T15:31:10;2.07;;;1.40;;
20369;SDS011;10344;47.592;9.600;2023-07-16T15:33:39;1.30;;;1.20;;
20369;SDS011;10344;47.592;9.600;2023-07-16T15:36:04;1.38;;;1.27;;
20369;SDS011;10344;47.592;9.600;2023-07-16T15:38:31;2.25;;;1.50;;
20369;SDS011;10344;47.592;9.600;2023-07-16T15:40:59;1.58;;;1.30;;
20369;SDS011;10344;47.592;9.600;2023-07-16T15:43:24;2.83;;;1.50;;
20369;SDS011;10344;47.592;9.600;2023-07-16T18:27:27;1.27;;;1.15;;
20369;SDS011;10344;47.592;9.600;2023-07-16T18:29:57;1.60;;;1.30;;
20369;SDS011;10344;47.592;9.600;2023-07-16T18:49:24;1.88;;;1.50;;
20369;SDS011;10344;47.592;9.600;2023-07-16T18:56:43;3.13;;;2.17;;
20369;SDS011;10344;47.592;9.600;2023-07-16T18:59:11;3.42;;;2.22;;
20369;SDS011;10344;47.592;9.600;2023-07-16T19:01:37;2.60;;;1.87;;
20369;SDS011;10344;47.592;9.600;2023-07-16T19:04:03;2.53;;;1.80;;
20369;SDS011;10344;47.592;9.600;2023-07-16T19:06:29;2.17;;;1.97;;
20369;SDS011;10344;47.592;9.600;2023-07-16T19:08:57;2.65;;;2.10;;
20369;SDS011;10344;47.592;9.600;2023-07-16T19:11:23;2.40;;;1.73;;
20369;SDS011;10344;47.592;9.600;2023-07-16T19:13:49;1.95;;;1.75;;
20369;SDS011;10344;47.592;9.600;2023-07-16T19:16:15;4.77;;;2.40;;
